CST,Max TemperatureF,Mean TemperatureF,Min TemperatureF,Max Dew PointF,MeanDew PointF,Min DewpointF,Max Humidity, Mean Humidity, Min Humidity, Max Sea Level PressureIn, Mean Sea Level PressureIn, Min Sea Level PressureIn, Max VisibilityMiles, Mean VisibilityMiles, Min VisibilityMiles, Max Wind SpeedMPH, Mean Wind SpeedMPH, Max Gust SpeedMPH,PrecipitationIn, CloudCover, Events, WindDirDegrees
2012-12-1,53,40,28,45,37,28,100,90,62,29.95,29.78,29.69,10,4,0,21,12,26,0.00,2,Fog,198
2012-12-2,59,40,21,43,33,21,100,76,45,29.96,29.86,29.70,10,8,3,17,6,25,0.00,0,,177
2012-12-3,55,44,32,50,38,25,100,74,41,29.98,29.72,29.54,10,7,1,28,16,37,0.00,3,,232
2012-12-4,37,28,17,25,18,10,86,67,45,30.35,30.18,29.99,10,10,10,8,2,,0.00,0,,229
2012-12-5,46,30,15,30,20,10,79,60,48,30.35,30.05,29.76,10,10,10,0,0,,0.00,1,,-1
2012-12-6,48,39,30,37,31,21,87,67,43,29.99,29.87,29.75,10,10,10,0,0,,0.01,4,Rain,-1
2012-12-7,30,26,23,27,23,21,100,83,69,30.01,29.98,29.94,10,8,1,0,0,,0.00,6,Snow,-1
2012-12-8,33,26,19,30,26,19,100,95,86,30.01,29.94,29.85,10,4,0,0,0,,0.00,8,Fog-Snow,-1
2012-12-9,33,18,3,34,22,1,100,92,85,29.97,29.83,29.74,10,3,0,0,0,,0.08,8,Snow,-1
2012-12-10,19,8,-2,16,2,-8,92,78,61,29.99,29.89,29.77,10,9,2,0,0,,0.00,3,Snow,-1
2012-12-11,30,19,8,25,17,7,100,89,75,29.91,29.84,29.75,10,9,1,15,6,17,0.00,4,Snow,255
2012-12-12,42,30,19,27,23,18,100,66,52,29.89,29.81,29.76,10,10,10,20,10,28,0.00,0,,186
2012-12-13,35,24,12,21,17,10,100,85,56,30.08,29.97,29.84,10,8,7,14,6,20,0.00,0,,270
2012-12-14,42,26,10,34,24,9,100,78,61,30.08,29.88,29.65,10,9,7,14,2,20,0.00,1,,142
2012-12-15,41,34,26,39,34,25,100,96,76,29.65,29.54,29.46,10,4,0,18,2,24,0.18,8,Fog-Rain-Snow,303
2012-12-16,26,20,14,25,17,12,100,93,86,29.79,29.73,29.62,10,5,0,16,9,22,0.00,7,Fog-Snow,316
2012-12-17,26,24,21,25,23,19,100,94,86,29.77,29.69,29.62,10,4,0,4,0,,0.00,8,Fog-Snow,140
2012-12-18,30,28,26,28,27,25,100,97,86,29.82,29.63,29.52,10,3,0,9,1,,0.01,8,Fog-Snow,203
2012-12-19,32,22,12,27,21,10,100,91,80,29.99,29.91,29.81,10,8,0,17,3,23,0.01,4,Fog-Snow,348
2012-12-20,19,12,6,18,12,3,93,90,85,30.10,29.96,29.88,7,2,0,32,20,38,0.00,7,Fog-Snow,321
2012-12-21,17,10,3,10,6,1,92,82,68,30.25,30.18,30.10,10,10,4,15,7,21,0.00,2,Snow,288
2012-12-22,24,16,8,19,13,5,92,83,68,30.10,29.98,29.92,10,10,7,17,8,22,0.00,2,Snow,291
2012-12-23,14,10,5,10,7,3,100,89,79,30.07,30.01,29.96,10,9,3,15,8,,0.00,3,Snow,2
2012-12-24,14,4,-5,10,1,-9,92,85,78,30.27,30.08,29.95,10,6,1,22,10,25,0.00,8,Snow,323
2012-12-25,5,-1,-7,1,-5,-9,92,85,78,30.44,30.38,30.28,10,9,3,17,6,,0.00,1,Snow,322
2012-12-26,10,5,0,5,0,-4,92,82,72,30.34,30.24,30.16,10,10,10,6,2,,0.00,4,,338
2012-12-27,17,11,5,18,11,1,100,90,79,30.17,30.10,30.04,10,5,1,7,1,,0.00,7,Snow,67
2012-12-28,17,12,8,16,13,7,100,93,86,30.04,30.00,29.96,10,6,2,12,3,,0.00,7,Snow,334
2012-12-29,12,8,3,10,6,0,100,90,85,30.13,30.07,30.02,10,7,2,12,4,,0.00,4,Snow,266
2012-12-30,32,18,3,21,12,1,100,84,60,30.13,29.99,29.84,10,10,4,22,4,30,0.00,0,,219
2012-12-31,19,8,-2,18,4,-8,93,81,67,30.22,30.15,30.03,10,10,2,24,13,36,0.00,3,Snow,323